Heide Moran — WYN6273 — position and weather

sailwx.info

Track history (hours):
 
Tides and Currents Weather Stations Pressure Air Temp Water Temp Dewpoint Dewpoint Depression Visibility Wind Speed Wind Dir Waves Ship Positions

Heide Moran

Owner: MORAN TOWING CORPORATION, New Canaan, CT. More information available from US FCC via Universal Licensing System and Coast Guard Vessel Documentation Center.

Last reported at 2018-Feb-22 12:42 UTC. Time now 2018-Feb-25 13:15 UTC.
Position N 39°06' W 075°12'.

Length 41 m; draft 4.6 m.

Type: Towing. MMSI: 368674000.

Date/timePositionNaut miles runAvg speedWind from/ knotsBaromVisibWave heightAir tempDewpointWater temp
2018-Feb-22 12:42N 39°06' W 075°12'212.1
2018-Feb-22 12:30N 39°08' W 075°13'612.5
2018-Feb-22 12:00N 39°13' W 075°18'612.8
2018-Feb-22 11:30N 39°18' W 075°23'612.4
2018-Feb-22 11:00N 39°23' W 075°28'611.8
2018-Feb-22 10:30N 39°27' W 075°33'510.6
2018-Feb-22 10:00N 39°32' W 075°33'510.1
2018-Feb-22 09:30N 39°37' W 075°35'5 9.3
2018-Feb-22 09:00N 39°41' W 075°31'5 9.2
2018-Feb-22 08:30N 39°45' W 075°29'4 8.8
2018-Feb-22 08:00N 39°48' W 075°25'4 8.8
2018-Feb-22 07:30N 39°51' W 075°20'5 9.2
2018-Feb-22 07:00N 39°51' W 075°14'0 0.6
2018-Feb-22 06:29N 39°51' W 075°14'3 6.0
2018-Feb-22 06:01N 39°54' W 075°12'0 0.0
2018-Feb-22 05:31N 39°53' W 075°12'0 0.0
2018-Feb-22 05:01N 39°54' W 075°12'0 0.0
2018-Feb-22 04:30N 39°54' W 075°12'0 0.0
2018-Feb-22 04:00N 39°54' W 075°12'0 0.0
2018-Feb-22 03:30N 39°53' W 075°12'1 1.6
2018-Feb-22 03:00N 39°53' W 075°11'3 6.3
2018-Feb-22 02:30N 39°51' W 075°14'1 1.7
2018-Feb-22 02:00N 39°52' W 075°13'5 9.2
2018-Feb-22 01:30N 39°54' W 075°08'5 9.5
2018-Feb-22 01:00N 39°59' W 075°06'4 8.6
2018-Feb-22 00:30N 40°01' W 075°01'611.2
2018-Feb-22 00:00N 40°04' W 074°55'5 8.6
2018-Feb-21 23:28N 40°07' W 074°50'4 7.6
2018-Feb-21 23:00N 40°08' W 074°46'0 0.6
2018-Feb-21 22:15N 40°08' W 074°45'0 0.0
2018-Feb-21 22:00N 40°08' W 074°45'0 0.0
2018-Feb-21 21:30N 40°08' W 074°45'0 0.0
2018-Feb-21 20:54N 40°08' W 074°45'0 0.0
2018-Feb-21 20:27N 40°08' W 074°45'0 0.0
2018-Feb-21 19:57N 40°08' W 074°45'0 0.0
2018-Feb-21 19:18N 40°08' W 074°45'0 0.0
2018-Feb-21 19:00N 40°08' W 074°45'0 0.0
2018-Feb-21 18:30N 40°08' W 074°45'0 0.0
2018-Feb-21 17:54N 40°08' W 074°45'0 0.0
2018-Feb-21 17:30N 40°08' W 074°45'0 0.0
2018-Feb-21 17:00N 40°08' W 074°45'0 0.0
2018-Feb-21 16:30N 40°08' W 074°45'0 0.0
2018-Feb-21 16:00N 40°08' W 074°45'0 0.0
2018-Feb-21 15:24N 40°08' W 074°45'0 0.0
2018-Feb-21 14:57N 40°08' W 074°45'0 0.0
2018-Feb-21 14:30N 40°08' W 074°45'0 0.0
2018-Feb-21 13:54N 40°08' W 074°45'0 0.0
2018-Feb-21 13:30N 40°08' W 074°45'0 0.0
2018-Feb-21 12:57N 40°08' W 074°45'0 0.0
2018-Feb-21 12:30N 40°08' W 074°45'0 0.0
2018-Feb-21 12:00N 40°08' W 074°45'0 0.0
2018-Feb-21 11:30N 40°08' W 074°45'0 0.0
2018-Feb-21 11:00N 40°08' W 074°45'0 0.0
2018-Feb-21 10:30N 40°08' W 074°45'0 0.0
2018-Feb-21 10:00N 40°08' W 074°45'0 0.0
2018-Feb-21 09:27N 40°08' W 074°45'0 0.0
2018-Feb-21 08:51N 40°08' W 074°45'0 0.0
2018-Feb-21 08:30N 40°08' W 074°45'0 0.0
2018-Feb-21 07:54N 40°08' W 074°45'0 0.0
2018-Feb-21 07:30N 40°08' W 074°45'0 0.0
2018-Feb-21 07:00N 40°08' W 074°45'0 0.0
2018-Feb-21 06:30N 40°08' W 074°45'0 0.0
2018-Feb-21 06:00N 40°08' W 074°45'0 0.0
2018-Feb-21 05:30N 40°08' W 074°45'0 0.0
2018-Feb-21 05:00N 40°08' W 074°45'0 0.0
2018-Feb-21 04:30N 40°08' W 074°45'0 0.0
2018-Feb-21 03:59N 40°08' W 074°45'0 0.0
2018-Feb-21 03:17N 40°08' W 074°45'0 0.0
2018-Feb-21 02:56N 40°08' W 074°45'0 0.0
2018-Feb-21 02:26N 40°08' W 074°45'0 0.0
2018-Feb-21 01:59N 40°08' W 074°45'0 0.0
2018-Feb-21 01:29N 40°08' W 074°45'0 0.0
2018-Feb-21 00:56N 40°08' W 074°45'0 0.0
2018-Feb-21 00:26N 40°08' W 074°45'0 0.0
2018-Feb-20 23:59N 40°08' W 074°45'0 0.0
2018-Feb-20 23:29N 40°08' W 074°45'0 0.0
2018-Feb-20 22:59N 40°08' W 074°45'0 0.0
2018-Feb-20 22:29N 40°08' W 074°45'0 0.0
2018-Feb-20 21:59N 40°08' W 074°45'0 0.0
2018-Feb-20 21:29N 40°08' W 074°45'0 0.0
2018-Feb-20 20:59N 40°08' W 074°45'0 0.0
2018-Feb-20 20:29N 40°08' W 074°45'0 0.0
2018-Feb-20 19:56N 40°08' W 074°45'0 0.0
2018-Feb-20 19:23N 40°08' W 074°45'0 0.0
2018-Feb-20 18:59N 40°08' W 074°45'0 0.0
2018-Feb-20 18:29N 40°08' W 074°45'0 0.0
2018-Feb-20 17:59N 40°08' W 074°45'0 0.0
2018-Feb-20 17:29N 40°08' W 074°45'0 0.0
2018-Feb-20 16:59N 40°08' W 074°45'0 0.0
2018-Feb-20 16:23N 40°08' W 074°45'0 0.0
2018-Feb-20 15:53N 40°08' W 074°45'0 0.0
2018-Feb-20 15:26N 40°08' W 074°45'0 0.0
2018-Feb-20 14:53N 40°08' W 074°45'0 0.0
2018-Feb-20 14:29N 40°08' W 074°45'0 0.0
2018-Feb-20 13:56N 40°08' W 074°45'0 0.0
2018-Feb-20 13:29N 40°08' W 074°45'0 0.0
2018-Feb-20 12:56N 40°08' W 074°45'0 0.0
2018-Feb-20 12:29N 40°08' W 074°45'0 0.0
2018-Feb-20 11:50N 40°08' W 074°45'0 0.0
2018-Feb-20 11:29N 40°08' W 074°45'0 0.0
2018-Feb-20 10:59N 40°08' W 074°45'0 0.0
2018-Feb-20 10:29N 40°08' W 074°45'0 0.0
2018-Feb-20 09:59N 40°08' W 074°45'0 0.0
2018-Feb-20 09:29N 40°08' W 074°45'0 0.0
2018-Feb-20 08:59N 40°08' W 074°45'0 0.0
2018-Feb-20 08:29N 40°08' W 074°45'0 0.0
2018-Feb-20 07:59N 40°08' W 074°45'0 0.0
2018-Feb-20 07:29N 40°08' W 074°45'0 0.0
2018-Feb-20 06:59N 40°08' W 074°45'0 0.0
2018-Feb-20 06:29N 40°08' W 074°45'0 0.0
2018-Feb-20 05:59N 40°08' W 074°45'0 0.0
2018-Feb-20 05:29N 40°08' W 074°45'0 0.0
2018-Feb-20 04:59N 40°08' W 074°45'0 0.0
2018-Feb-20 04:23N 40°08' W 074°45'0 0.0
2018-Feb-20 03:59N 40°08' W 074°45'0 0.0
2018-Feb-20 03:23N 40°08' W 074°45'0 0.0
2018-Feb-20 02:59N 40°08' W 074°45'0 0.0
2018-Feb-20 02:23N 40°08' W 074°45'0 0.0
2018-Feb-20 01:59N 40°08' W 074°45'0 0.0
2018-Feb-20 01:17N 40°08' W 074°45'0 0.0
2018-Feb-20 00:53N 40°08' W 074°45'0 0.0
2018-Feb-20 00:26N 40°08' W 074°45'0 0.0
2018-Feb-19 23:59N 40°08' W 074°45'0 0.0
2018-Feb-19 23:26N 40°08' W 074°45'0 0.0
2018-Feb-19 22:59N 40°08' W 074°45'0 0.0
2018-Feb-19 22:29N 40°08' W 074°45'0 0.0
2018-Feb-19 21:56N 40°08' W 074°45'0 0.0
2018-Feb-19 21:23N 40°08' W 074°45'0 0.0
2018-Feb-19 20:59N 40°08' W 074°45'0 0.0
2018-Feb-19 20:26N 40°08' W 074°45'0 0.0
2018-Feb-19 19:59N 40°08' W 074°45'0 0.0
2018-Feb-19 19:29N 40°08' W 074°45'0 0.0
2018-Feb-19 18:59N 40°08' W 074°45'0 0.0
2018-Feb-19 18:14N 40°08' W 074°45'0 0.0
2018-Feb-19 17:59N 40°08' W 074°45'0 0.0
2018-Feb-19 17:29N 40°08' W 074°45'0 0.0
2018-Feb-19 16:50N 40°08' W 074°45'0 0.0
2018-Feb-19 16:29N 40°08' W 074°45'0 0.0
2018-Feb-19 15:49N 40°08' W 074°45'0 0.0
2018-Feb-19 15:29N 40°08' W 074°45'0 0.0
2018-Feb-19 14:55N 40°08' W 074°45'0 0.0
2018-Feb-19 14:16N 40°08' W 074°45'0 0.0
2018-Feb-19 13:58N 40°08' W 074°45'0 0.0
2018-Feb-19 13:22N 40°08' W 074°45'0 0.0
2018-Feb-19 12:28N 40°08' W 074°45'0 0.0
2018-Feb-19 11:56N 40°08' W 074°45'0 0.0
2018-Feb-19 11:28N 40°08' W 074°45'0 0.0
2018-Feb-19 10:55N 40°08' W 074°45'0 0.0
2018-Feb-19 10:28N 40°08' W 074°45'0 0.0
2018-Feb-19 09:58N 40°08' W 074°45'0 0.0
2018-Feb-19 09:28N 40°08' W 074°45'0 0.0
2018-Feb-19 08:58N 40°08' W 074°45'0 0.0
2018-Feb-19 08:25N 40°08' W 074°45'0 0.0
2018-Feb-19 07:58N 40°08' W 074°45'0 0.0
2018-Feb-19 07:28N 40°08' W 074°45'0 0.0
2018-Feb-19 06:58N 40°08' W 074°45'0 0.0
2018-Feb-19 06:25N 40°08' W 074°45'0 0.0
2018-Feb-19 05:52N 40°08' W 074°45'0 0.0
2018-Feb-19 05:28N 40°08' W 074°45'0 0.0
2018-Feb-19 04:58N 40°08' W 074°45'0 0.0
2018-Feb-19 04:25N 40°08' W 074°45'0 0.0
2018-Feb-19 03:58N 40°08' W 074°45'0 0.0
2018-Feb-19 03:28N 40°08' W 074°45'0 0.0
2018-Feb-19 02:58N 40°08' W 074°45'0 0.0
2018-Feb-19 02:28N 40°08' W 074°45'0 0.0
2018-Feb-19 01:58N 40°08' W 074°45'0 0.0
2018-Feb-19 01:28N 40°08' W 074°45'0 0.0
2018-Feb-19 00:58N 40°08' W 074°45'0 0.0
2018-Feb-19 00:28N 40°08' W 074°45'0 0.0
2018-Feb-18 23:58N 40°08' W 074°45'0 0.0
2018-Feb-18 23:28N 40°08' W 074°45'0 0.0
2018-Feb-18 22:55N 40°08' W 074°45'0 0.0
2018-Feb-18 22:28N 40°08' W 074°45'0 0.0
2018-Feb-18 21:55N 40°08' W 074°45'0 0.0
2018-Feb-18 21:28N 40°08' W 074°45'0 0.0
2018-Feb-18 20:58N 40°08' W 074°45'0 0.0
2018-Feb-18 20:28N 40°08' W 074°45'0 0.0
2018-Feb-18 19:55N 40°08' W 074°45'0 0.0
2018-Feb-18 19:28N 40°08' W 074°45'0 0.0
2018-Feb-18 18:58N 40°08' W 074°45'0 0.1
2018-Feb-18 18:22N 40°08' W 074°45'0 0.0
2018-Feb-18 18:00N 40°08' W 074°45'0 0.9
2018-Feb-18 17:30N 40°08' W 074°46'3 6.1
2018-Feb-18 17:00N 40°07' W 074°50'3 6.2
2018-Feb-18 16:30N 40°05' W 074°52'3 6.1
2018-Feb-18 16:00N 40°04' W 074°56'3 6.1
2018-Feb-18 15:30N 40°03' W 074°59'3 6.0
2018-Feb-18 15:00N 40°01' W 075°02'3 5.8
2018-Feb-18 14:30N 39°59' W 075°05'3 5.7
2018-Feb-18 14:00N 39°57' W 075°08'3 6.0
2018-Feb-18 13:30N 39°54' W 075°08'3 5.2
2018-Feb-18 13:00N 39°53' W 075°11'2 4.5
2018-Feb-18 12:30N 39°52' W 075°13'0 0.1
2018-Feb-18 12:00N 39°52' W 075°13'0 0.0
2018-Feb-18 11:30N 39°52' W 075°13'0 0.0
2018-Feb-18 10:59N 39°52' W 075°13'0 0.0
2018-Feb-18 10:30N 39°52' W 075°13'0 0.0
2018-Feb-18 10:00N 39°52' W 075°13'0 0.0
2018-Feb-18 09:30N 39°52' W 075°13'0 0.2
2018-Feb-18 09:00N 39°52' W 075°13'0 0.2
2018-Feb-18 08:31N 39°52' W 075°13'0 0.0
2018-Feb-18 08:00N 39°52' W 075°13'0 0.0
2018-Feb-18 07:30N 39°52' W 075°13'0 0.0
2018-Feb-18 07:00N 39°52' W 075°13'0 0.0
2018-Feb-18 06:30N 39°52' W 075°13'0 0.0
2018-Feb-18 06:00N 39°52' W 075°13'0 0.0
2018-Feb-18 05:30N 39°52' W 075°13'0 0.0
2018-Feb-18 05:00N 39°52' W 075°13'0 0.0
2018-Feb-18 04:30N 39°52' W 075°13'0 0.0
2018-Feb-18 04:00N 39°52' W 075°13'0 0.3
2018-Feb-18 03:30N 39°52' W 075°13'0 0.2
2018-Feb-18 03:00N 39°52' W 075°13'3 5.2
2018-Feb-18 02:30N 39°51' W 075°17'3 6.1
2018-Feb-18 02:00N 39°51' W 075°21'3 5.1
2018-Feb-18 01:30N 39°49' W 075°23'3 5.3
2018-Feb-18 01:00N 39°48' W 075°26'2 4.8
2018-Feb-18 00:30N 39°46' W 075°28'3 5.5
2018-Feb-18 00:00N 39°44' W 075°30'3 5.7
2018-Feb-17 23:30N 39°41' W 075°31'3 5.2
2018-Feb-17 23:00N 39°39' W 075°33'2 4.3
2018-Feb-17 22:30N 39°37' W 075°35'2 4.6
2018-Feb-17 22:00N 39°35' W 075°33'2 4.7
2018-Feb-17 21:30N 39°33' W 075°33'3 5.8
2018-Feb-17 21:00N 39°30' W 075°34'3 5.8
2018-Feb-17 20:30N 39°27' W 075°33'3 6.3
2018-Feb-17 20:00N 39°25' W 075°30'3 6.6
2018-Feb-17 19:30N 39°22' W 075°28'3 6.9
2018-Feb-17 19:00N 39°20' W 075°25'4 7.3
2018-Feb-17 18:30N 39°17' W 075°21'4 7.6
2018-Feb-17 18:00N 39°14' W 075°18'4 7.7
2018-Feb-17 17:31N 39°11' W 075°16'4 7.6
2018-Feb-17 17:00N 39°07' W 075°13'4 7.6
2018-Feb-17 16:25N 39°04' W 075°10'  
2018-Feb-12 17:57N 26°21' W 079°59'511.6
2018-Feb-12 17:30N 26°15' W 079°59'611.7
2018-Feb-12 17:00N 26°10' W 079°59'611.7
2018-Feb-12 16:30N 26°04' W 079°60'510.6
2018-Feb-12 16:00N 25°59' W 080°02'611.7
2018-Feb-12 15:30N 25°53' W 080°02'612.0
2018-Feb-12 14:59N 25°47' W 080°02'611.8
2018-Feb-12 14:30N 25°41' W 080°02'611.5
2018-Feb-12 13:58N 25°35' W 080°02'  
Track history (hours):
 
Tides and Currents Weather Stations Pressure Air Temp Water Temp Dewpoint Dewpoint Depression Visibility Wind Speed Wind Dir Waves Ship Positions

Heide Moran

Owner: MORAN TOWING CORPORATION, New Canaan, CT. More information available from US FCC via Universal Licensing System and Coast Guard Vessel Documentation Center.

Last reported at 2018-Feb-22 12:42 UTC. Time now 2018-Feb-25 13:15 UTC.
Position N 39°06' W 075°12'.

Length 41 m; draft 4.6 m.

Type: Towing. MMSI: 368674000.

Date/timePositionNaut miles runAvg speedWind from/ knotsBaromVisibWave heightAir tempDewpointWater temp
2018-Feb-22 12:42N 39°06' W 075°12'212.1
2018-Feb-22 12:30N 39°08' W 075°13'612.5
2018-Feb-22 12:00N 39°13' W 075°18'612.8
2018-Feb-22 11:30N 39°18' W 075°23'612.4
2018-Feb-22 11:00N 39°23' W 075°28'611.8
2018-Feb-22 10:30N 39°27' W 075°33'510.6
2018-Feb-22 10:00N 39°32' W 075°33'510.1
2018-Feb-22 09:30N 39°37' W 075°35'5 9.3
2018-Feb-22 09:00N 39°41' W 075°31'5 9.2
2018-Feb-22 08:30N 39°45' W 075°29'4 8.8
2018-Feb-22 08:00N 39°48' W 075°25'4 8.8
2018-Feb-22 07:30N 39°51' W 075°20'5 9.2
2018-Feb-22 07:00N 39°51' W 075°14'0 0.6
2018-Feb-22 06:29N 39°51' W 075°14'3 6.0
2018-Feb-22 06:01N 39°54' W 075°12'0 0.0
2018-Feb-22 05:31N 39°53' W 075°12'0 0.0
2018-Feb-22 05:01N 39°54' W 075°12'0 0.0
2018-Feb-22 04:30N 39°54' W 075°12'0 0.0
2018-Feb-22 04:00N 39°54' W 075°12'0 0.0
2018-Feb-22 03:30N 39°53' W 075°12'1 1.6
2018-Feb-22 03:00N 39°53' W 075°11'3 6.3
2018-Feb-22 02:30N 39°51' W 075°14'1 1.7
2018-Feb-22 02:00N 39°52' W 075°13'5 9.2
2018-Feb-22 01:30N 39°54' W 075°08'5 9.5
2018-Feb-22 01:00N 39°59' W 075°06'4 8.6
2018-Feb-22 00:30N 40°01' W 075°01'611.2
2018-Feb-22 00:00N 40°04' W 074°55'5 8.6
2018-Feb-21 23:28N 40°07' W 074°50'4 7.6
2018-Feb-21 23:00N 40°08' W 074°46'0 0.6
2018-Feb-21 22:15N 40°08' W 074°45'0 0.0
2018-Feb-21 22:00N 40°08' W 074°45'0 0.0
2018-Feb-21 21:30N 40°08' W 074°45'0 0.0
2018-Feb-21 20:54N 40°08' W 074°45'0 0.0
2018-Feb-21 20:27N 40°08' W 074°45'0 0.0
2018-Feb-21 19:57N 40°08' W 074°45'0 0.0
2018-Feb-21 19:18N 40°08' W 074°45'0 0.0
2018-Feb-21 19:00N 40°08' W 074°45'0 0.0
2018-Feb-21 18:30N 40°08' W 074°45'0 0.0
2018-Feb-21 17:54N 40°08' W 074°45'0 0.0
2018-Feb-21 17:30N 40°08' W 074°45'0 0.0
2018-Feb-21 17:00N 40°08' W 074°45'0 0.0
2018-Feb-21 16:30N 40°08' W 074°45'0 0.0
2018-Feb-21 16:00N 40°08' W 074°45'0 0.0
2018-Feb-21 15:24N 40°08' W 074°45'0 0.0
2018-Feb-21 14:57N 40°08' W 074°45'0 0.0
2018-Feb-21 14:30N 40°08' W 074°45'0 0.0
2018-Feb-21 13:54N 40°08' W 074°45'0 0.0
2018-Feb-21 13:30N 40°08' W 074°45'0 0.0
2018-Feb-21 12:57N 40°08' W 074°45'0 0.0
2018-Feb-21 12:30N 40°08' W 074°45'0 0.0
2018-Feb-21 12:00N 40°08' W 074°45'0 0.0
2018-Feb-21 11:30N 40°08' W 074°45'0 0.0
2018-Feb-21 11:00N 40°08' W 074°45'0 0.0
2018-Feb-21 10:30N 40°08' W 074°45'0 0.0
2018-Feb-21 10:00N 40°08' W 074°45'0 0.0
2018-Feb-21 09:27N 40°08' W 074°45'0 0.0
2018-Feb-21 08:51N 40°08' W 074°45'0 0.0
2018-Feb-21 08:30N 40°08' W 074°45'0 0.0
2018-Feb-21 07:54N 40°08' W 074°45'0 0.0
2018-Feb-21 07:30N 40°08' W 074°45'0 0.0
2018-Feb-21 07:00N 40°08' W 074°45'0 0.0
2018-Feb-21 06:30N 40°08' W 074°45'0 0.0
2018-Feb-21 06:00N 40°08' W 074°45'0 0.0
2018-Feb-21 05:30N 40°08' W 074°45'0 0.0
2018-Feb-21 05:00N 40°08' W 074°45'0 0.0
2018-Feb-21 04:30N 40°08' W 074°45'0 0.0
2018-Feb-21 03:59N 40°08' W 074°45'0 0.0
2018-Feb-21 03:17N 40°08' W 074°45'0 0.0
2018-Feb-21 02:56N 40°08' W 074°45'0 0.0
2018-Feb-21 02:26N 40°08' W 074°45'0 0.0
2018-Feb-21 01:59N 40°08' W 074°45'0 0.0
2018-Feb-21 01:29N 40°08' W 074°45'0 0.0
2018-Feb-21 00:56N 40°08' W 074°45'0 0.0
2018-Feb-21 00:26N 40°08' W 074°45'0 0.0
2018-Feb-20 23:59N 40°08' W 074°45'0 0.0
2018-Feb-20 23:29N 40°08' W 074°45'0 0.0
2018-Feb-20 22:59N 40°08' W 074°45'0 0.0
2018-Feb-20 22:29N 40°08' W 074°45'0 0.0
2018-Feb-20 21:59N 40°08' W 074°45'0 0.0
2018-Feb-20 21:29N 40°08' W 074°45'0 0.0
2018-Feb-20 20:59N 40°08' W 074°45'0 0.0
2018-Feb-20 20:29N 40°08' W 074°45'0 0.0
2018-Feb-20 19:56N 40°08' W 074°45'0 0.0
2018-Feb-20 19:23N 40°08' W 074°45'0 0.0
2018-Feb-20 18:59N 40°08' W 074°45'0 0.0
2018-Feb-20 18:29N 40°08' W 074°45'0 0.0
2018-Feb-20 17:59N 40°08' W 074°45'0 0.0
2018-Feb-20 17:29N 40°08' W 074°45'0 0.0
2018-Feb-20 16:59N 40°08' W 074°45'0 0.0
2018-Feb-20 16:23N 40°08' W 074°45'0 0.0
2018-Feb-20 15:53N 40°08' W 074°45'0 0.0
2018-Feb-20 15:26N 40°08' W 074°45'0 0.0
2018-Feb-20 14:53N 40°08' W 074°45'0 0.0
2018-Feb-20 14:29N 40°08' W 074°45'0 0.0
2018-Feb-20 13:56N 40°08' W 074°45'0 0.0
2018-Feb-20 13:29N 40°08' W 074°45'0 0.0
2018-Feb-20 12:56N 40°08' W 074°45'0 0.0
2018-Feb-20 12:29N 40°08' W 074°45'0 0.0
2018-Feb-20 11:50N 40°08' W 074°45'0 0.0
2018-Feb-20 11:29N 40°08' W 074°45'0 0.0
2018-Feb-20 10:59N 40°08' W 074°45'0 0.0
2018-Feb-20 10:29N 40°08' W 074°45'0 0.0
2018-Feb-20 09:59N 40°08' W 074°45'0 0.0
2018-Feb-20 09:29N 40°08' W 074°45'0 0.0
2018-Feb-20 08:59N 40°08' W 074°45'0 0.0
2018-Feb-20 08:29N 40°08' W 074°45'0 0.0
2018-Feb-20 07:59N 40°08' W 074°45'0 0.0
2018-Feb-20 07:29N 40°08' W 074°45'0 0.0
2018-Feb-20 06:59N 40°08' W 074°45'0 0.0
2018-Feb-20 06:29N 40°08' W 074°45'0 0.0
2018-Feb-20 05:59N 40°08' W 074°45'0 0.0
2018-Feb-20 05:29N 40°08' W 074°45'0 0.0
2018-Feb-20 04:59N 40°08' W 074°45'0 0.0
2018-Feb-20 04:23N 40°08' W 074°45'0 0.0
2018-Feb-20 03:59N 40°08' W 074°45'0 0.0
2018-Feb-20 03:23N 40°08' W 074°45'0 0.0
2018-Feb-20 02:59N 40°08' W 074°45'0 0.0
2018-Feb-20 02:23N 40°08' W 074°45'0 0.0
2018-Feb-20 01:59N 40°08' W 074°45'0 0.0
2018-Feb-20 01:17N 40°08' W 074°45'0 0.0
2018-Feb-20 00:53N 40°08' W 074°45'0 0.0
2018-Feb-20 00:26N 40°08' W 074°45'0 0.0
2018-Feb-19 23:59N 40°08' W 074°45'0 0.0
2018-Feb-19 23:26N 40°08' W 074°45'0 0.0
2018-Feb-19 22:59N 40°08' W 074°45'0 0.0
2018-Feb-19 22:29N 40°08' W 074°45'0 0.0
2018-Feb-19 21:56N 40°08' W 074°45'0 0.0
2018-Feb-19 21:23N 40°08' W 074°45'0 0.0
2018-Feb-19 20:59N 40°08' W 074°45'0 0.0
2018-Feb-19 20:26N 40°08' W 074°45'0 0.0
2018-Feb-19 19:59N 40°08' W 074°45'0 0.0
2018-Feb-19 19:29N 40°08' W 074°45'0 0.0
2018-Feb-19 18:59N 40°08' W 074°45'0 0.0
2018-Feb-19 18:14N 40°08' W 074°45'0 0.0
2018-Feb-19 17:59N 40°08' W 074°45'0 0.0
2018-Feb-19 17:29N 40°08' W 074°45'0 0.0
2018-Feb-19 16:50N 40°08' W 074°45'0 0.0
2018-Feb-19 16:29N 40°08' W 074°45'0 0.0
2018-Feb-19 15:49N 40°08' W 074°45'0 0.0
2018-Feb-19 15:29N 40°08' W 074°45'0 0.0
2018-Feb-19 14:55N 40°08' W 074°45'0 0.0
2018-Feb-19 14:16N 40°08' W 074°45'0 0.0
2018-Feb-19 13:58N 40°08' W 074°45'0 0.0
2018-Feb-19 13:22N 40°08' W 074°45'0 0.0
2018-Feb-19 12:28N 40°08' W 074°45'0 0.0
2018-Feb-19 11:56N 40°08' W 074°45'0 0.0
2018-Feb-19 11:28N 40°08' W 074°45'0 0.0
2018-Feb-19 10:55N 40°08' W 074°45'0 0.0
2018-Feb-19 10:28N 40°08' W 074°45'0 0.0
2018-Feb-19 09:58N 40°08' W 074°45'0 0.0
2018-Feb-19 09:28N 40°08' W 074°45'0 0.0
2018-Feb-19 08:58N 40°08' W 074°45'0 0.0
2018-Feb-19 08:25N 40°08' W 074°45'0 0.0
2018-Feb-19 07:58N 40°08' W 074°45'0 0.0
2018-Feb-19 07:28N 40°08' W 074°45'0 0.0
2018-Feb-19 06:58N 40°08' W 074°45'0 0.0
2018-Feb-19 06:25N 40°08' W 074°45'0 0.0
2018-Feb-19 05:52N 40°08' W 074°45'0 0.0
2018-Feb-19 05:28N 40°08' W 074°45'0 0.0
2018-Feb-19 04:58N 40°08' W 074°45'0 0.0
2018-Feb-19 04:25N 40°08' W 074°45'0 0.0
2018-Feb-19 03:58N 40°08' W 074°45'0 0.0
2018-Feb-19 03:28N 40°08' W 074°45'0 0.0
2018-Feb-19 02:58N 40°08' W 074°45'0 0.0
2018-Feb-19 02:28N 40°08' W 074°45'0 0.0
2018-Feb-19 01:58N 40°08' W 074°45'0 0.0
2018-Feb-19 01:28N 40°08' W 074°45'0 0.0
2018-Feb-19 00:58N 40°08' W 074°45'0 0.0
2018-Feb-19 00:28N 40°08' W 074°45'0 0.0
2018-Feb-18 23:58N 40°08' W 074°45'0 0.0
2018-Feb-18 23:28N 40°08' W 074°45'0 0.0
2018-Feb-18 22:55N 40°08' W 074°45'0 0.0
2018-Feb-18 22:28N 40°08' W 074°45'0 0.0
2018-Feb-18 21:55N 40°08' W 074°45'0 0.0
2018-Feb-18 21:28N 40°08' W 074°45'0 0.0
2018-Feb-18 20:58N 40°08' W 074°45'0 0.0
2018-Feb-18 20:28N 40°08' W 074°45'0 0.0
2018-Feb-18 19:55N 40°08' W 074°45'0 0.0
2018-Feb-18 19:28N 40°08' W 074°45'0 0.0
2018-Feb-18 18:58N 40°08' W 074°45'0 0.1
2018-Feb-18 18:22N 40°08' W 074°45'0 0.0
2018-Feb-18 18:00N 40°08' W 074°45'0 0.9
2018-Feb-18 17:30N 40°08' W 074°46'3 6.1
2018-Feb-18 17:00N 40°07' W 074°50'3 6.2
2018-Feb-18 16:30N 40°05' W 074°52'3 6.1
2018-Feb-18 16:00N 40°04' W 074°56'3 6.1
2018-Feb-18 15:30N 40°03' W 074°59'3 6.0
2018-Feb-18 15:00N 40°01' W 075°02'3 5.8
2018-Feb-18 14:30N 39°59' W 075°05'3 5.7
2018-Feb-18 14:00N 39°57' W 075°08'3 6.0
2018-Feb-18 13:30N 39°54' W 075°08'3 5.2
2018-Feb-18 13:00N 39°53' W 075°11'2 4.5
2018-Feb-18 12:30N 39°52' W 075°13'0 0.1
2018-Feb-18 12:00N 39°52' W 075°13'0 0.0
2018-Feb-18 11:30N 39°52' W 075°13'0 0.0
2018-Feb-18 10:59N 39°52' W 075°13'0 0.0
2018-Feb-18 10:30N 39°52' W 075°13'0 0.0
2018-Feb-18 10:00N 39°52' W 075°13'0 0.0
2018-Feb-18 09:30N 39°52' W 075°13'0 0.2
2018-Feb-18 09:00N 39°52' W 075°13'0 0.2
2018-Feb-18 08:31N 39°52' W 075°13'0 0.0
2018-Feb-18 08:00N 39°52' W 075°13'0 0.0
2018-Feb-18 07:30N 39°52' W 075°13'0 0.0
2018-Feb-18 07:00N 39°52' W 075°13'0 0.0
2018-Feb-18 06:30N 39°52' W 075°13'0 0.0
2018-Feb-18 06:00N 39°52' W 075°13'0 0.0
2018-Feb-18 05:30N 39°52' W 075°13'0 0.0
2018-Feb-18 05:00N 39°52' W 075°13'0 0.0
2018-Feb-18 04:30N 39°52' W 075°13'0 0.0
2018-Feb-18 04:00N 39°52' W 075°13'0 0.3
2018-Feb-18 03:30N 39°52' W 075°13'0 0.2
2018-Feb-18 03:00N 39°52' W 075°13'3 5.2
2018-Feb-18 02:30N 39°51' W 075°17'3 6.1
2018-Feb-18 02:00N 39°51' W 075°21'3 5.1
2018-Feb-18 01:30N 39°49' W 075°23'3 5.3
2018-Feb-18 01:00N 39°48' W 075°26'2 4.8
2018-Feb-18 00:30N 39°46' W 075°28'3 5.5
2018-Feb-18 00:00N 39°44' W 075°30'3 5.7
2018-Feb-17 23:30N 39°41' W 075°31'3 5.2
2018-Feb-17 23:00N 39°39' W 075°33'2 4.3
2018-Feb-17 22:30N 39°37' W 075°35'2 4.6
2018-Feb-17 22:00N 39°35' W 075°33'2 4.7
2018-Feb-17 21:30N 39°33' W 075°33'3 5.8
2018-Feb-17 21:00N 39°30' W 075°34'3 5.8
2018-Feb-17 20:30N 39°27' W 075°33'3 6.3
2018-Feb-17 20:00N 39°25' W 075°30'3 6.6
2018-Feb-17 19:30N 39°22' W 075°28'3 6.9
2018-Feb-17 19:00N 39°20' W 075°25'4 7.3
2018-Feb-17 18:30N 39°17' W 075°21'4 7.6
2018-Feb-17 18:00N 39°14' W 075°18'4 7.7
2018-Feb-17 17:31N 39°11' W 075°16'4 7.6
2018-Feb-17 17:00N 39°07' W 075°13'4 7.6
2018-Feb-17 16:25N 39°04' W 075°10'  
2018-Feb-12 17:57N 26°21' W 079°59'511.6
2018-Feb-12 17:30N 26°15' W 079°59'611.7
2018-Feb-12 17:00N 26°10' W 079°59'611.7
2018-Feb-12 16:30N 26°04' W 079°60'510.6
2018-Feb-12 16:00N 25°59' W 080°02'611.7
2018-Feb-12 15:30N 25°53' W 080°02'612.0
2018-Feb-12 14:59N 25°47' W 080°02'611.8
2018-Feb-12 14:30N 25°41' W 080°02'611.5
2018-Feb-12 13:58N 25°35' W 080°02'  

Dump ship's entire track history